Disclaimer

Please do not use the information listed here in-flight or in-navigation, as they are not provided to us by the airports but are provided by volunteers, so they might be outdated.

Search


Regions


Airport information page

No radio frequency information is available.

Airport informations:
Latitude: 51° 40' 17.31" S
Longitude: 072° 31' 42.06" W
Elevation: 217 feet - 66 meters
Operating hours: From sunrise to sunset (SR-SS)
Operating agency: Civil government, landing fees and diplomatic clearance may be required
Timezone: UTC-4(-3DT)
Fuel: N/A

Runway information:
10/28 - 5786 x 98 feet< - >1764 x 30 meters

Recent METARs:
SCNT 192300Z VRB08KT 9999 FEW060 BKN200 16/04 Q0999
SCNT 192300Z VRB08KT 9999 FEW060 BKN200 16/04 Q0999
SCNT 192300Z VRB08KT 9999 FEW060 BKN200 16/04 Q0999

Airport on the map: